sensor_id;sensor_type;location;lat;lon;timestamp;P1;durP1;ratioP1;P2;durP2;ratioP2
10904;SDS011;5505;51.450;9.254;2023-06-14T00:01:23;2.57;;;2.37;;
10904;SDS011;5505;51.450;9.254;2023-06-14T00:04:10;4.87;;;2.00;;
10904;SDS011;5505;51.450;9.254;2023-06-14T00:06:59;3.13;;;2.30;;
10904;SDS011;5505;51.450;9.254;2023-06-14T00:09:46;2.30;;;2.10;;
10904;SDS011;5505;51.450;9.254;2023-06-14T00:12:33;2.73;;;2.10;;
10904;SDS011;5505;51.450;9.254;2023-06-14T00:15:21;2.30;;;1.93;;
10904;SDS011;5505;51.450;9.254;2023-06-14T00:18:09;2.37;;;2.17;;
10904;SDS011;5505;51.450;9.254;2023-06-14T00:20:57;3.77;;;2.20;;
10904;SDS011;5505;51.450;9.254;2023-06-14T00:23:45;2.50;;;2.03;;
10904;SDS011;5505;51.450;9.254;2023-06-14T00:26:32;4.27;;;2.60;;
10904;SDS011;5505;51.450;9.254;2023-06-14T00:29:19;2.40;;;2.20;;
10904;SDS011;5505;51.450;9.254;2023-06-14T00:32:07;2.20;;;1.80;;
10904;SDS011;5505;51.450;9.254;2023-06-14T00:34:54;3.37;;;1.97;;
10904;SDS011;5505;51.450;9.254;2023-06-14T00:37:41;2.20;;;2.00;;
10904;SDS011;5505;51.450;9.254;2023-06-14T00:40:30;2.20;;;2.00;;
10904;SDS011;5505;51.450;9.254;2023-06-14T00:43:17;2.73;;;2.10;;
10904;SDS011;5505;51.450;9.254;2023-06-14T00:46:04;3.50;;;2.23;;
10904;SDS011;5505;51.450;9.254;2023-06-14T00:48:51;2.03;;;1.83;;
10904;SDS011;5505;51.450;9.254;2023-06-14T00:51:39;3.23;;;1.97;;
10904;SDS011;5505;51.450;9.254;2023-06-14T00:54:26;4.40;;;1.97;;
10904;SDS011;5505;51.450;9.254;2023-06-14T00:57:15;2.30;;;2.07;;
10904;SDS011;5505;51.450;9.254;2023-06-14T01:00:03;3.63;;;2.30;;
10904;SDS011;5505;51.450;9.254;2023-06-14T01:02:54;2.83;;;1.90;;
10904;SDS011;5505;51.450;9.254;2023-06-14T01:05:42;3.30;;;2.27;;
10904;SDS011;5505;51.450;9.254;2023-06-14T01:08:31;4.10;;;2.20;;
10904;SDS011;5505;51.450;9.254;2023-06-14T01:11:28;5.03;;;1.90;;
10904;SDS011;5505;51.450;9.254;2023-06-14T01:14:20;2.73;;;2.00;;
10904;SDS011;5505;51.450;9.254;2023-06-14T01:17:08;3.43;;;2.10;;
10904;SDS011;5505;51.450;9.254;2023-06-14T01:20:01;2.30;;;2.10;;
10904;SDS011;5505;51.450;9.254;2023-06-14T01:22:51;3.93;;;2.23;;
10904;SDS011;5505;51.450;9.254;2023-06-14T01:25:39;2.27;;;2.00;;
10904;SDS011;5505;51.450;9.254;2023-06-14T01:28:30;2.10;;;1.97;;
10904;SDS011;5505;51.450;9.254;2023-06-14T01:31:19;2.00;;;1.70;;
10904;SDS011;5505;51.450;9.254;2023-06-14T01:34:08;2.23;;;2.03;;
10904;SDS011;5505;51.450;9.254;2023-06-14T01:36:55;4.10;;;1.97;;
10904;SDS011;5505;51.450;9.254;2023-06-14T01:39:44;3.43;;;2.10;;
10904;SDS011;5505;51.450;9.254;2023-06-14T01:42:32;4.87;;;2.00;;
10904;SDS011;5505;51.450;9.254;2023-06-14T01:45:20;3.07;;;1.93;;
10904;SDS011;5505;51.450;9.254;2023-06-14T01:48:09;2.40;;;2.20;;
10904;SDS011;5505;51.450;9.254;2023-06-14T01:50:56;2.70;;;2.50;;
10904;SDS011;5505;51.450;9.254;2023-06-14T01:53:43;3.43;;;2.57;;
10904;SDS011;5505;51.450;9.254;2023-06-14T01:56:31;2.70;;;2.07;;
10904;SDS011;5505;51.450;9.254;2023-06-14T01:59:19;2.80;;;1.97;;
10904;SDS011;5505;51.450;9.254;2023-06-14T02:02:06;2.43;;;1.97;;
10904;SDS011;5505;51.450;9.254;2023-06-14T02:04:53;2.00;;;1.90;;
10904;SDS011;5505;51.450;9.254;2023-06-14T02:07:42;2.43;;;2.13;;
10904;SDS011;5505;51.450;9.254;2023-06-14T02:10:29;3.13;;;1.90;;
10904;SDS011;5505;51.450;9.254;2023-06-14T02:13:18;2.20;;;2.00;;
10904;SDS011;5505;51.450;9.254;2023-06-14T02:16:05;2.20;;;2.00;;
10904;SDS011;5505;51.450;9.254;2023-06-14T02:18:52;3.20;;;1.80;;
10904;SDS011;5505;51.450;9.254;2023-06-14T02:21:39;2.80;;;2.10;;
10904;SDS011;5505;51.450;9.254;2023-06-14T02:24:26;3.67;;;2.27;;
10904;SDS011;5505;51.450;9.254;2023-06-14T02:27:13;2.27;;;2.07;;
10904;SDS011;5505;51.450;9.254;2023-06-14T02:30:02;3.00;;;2.10;;
10904;SDS011;5505;51.450;9.254;2023-06-14T02:32:49;2.87;;;2.10;;
10904;SDS011;5505;51.450;9.254;2023-06-14T02:35:38;4.20;;;2.27;;
10904;SDS011;5505;51.450;9.254;2023-06-14T02:38:25;2.20;;;2.00;;
10904;SDS011;5505;51.450;9.254;2023-06-14T02:41:12;2.00;;;1.80;;
10904;SDS011;5505;51.450;9.254;2023-06-14T02:43:59;2.70;;;2.40;;
10904;SDS011;5505;51.450;9.254;2023-06-14T02:46:48;2.60;;;2.13;;
10904;SDS011;5505;51.450;9.254;2023-06-14T02:49:35;2.27;;;2.07;;
10904;SDS011;5505;51.450;9.254;2023-06-14T02:52:22;4.90;;;2.40;;
10904;SDS011;5505;51.450;9.254;2023-06-14T02:55:10;3.77;;;1.77;;
10904;SDS011;5505;51.450;9.254;2023-06-14T02:57:57;3.13;;;2.10;;
10904;SDS011;5505;51.450;9.254;2023-06-14T03:00:44;3.10;;;2.00;;
10904;SDS011;5505;51.450;9.254;2023-06-14T03:03:33;2.97;;;2.13;;
10904;SDS011;5505;51.450;9.254;2023-06-14T03:06:20;3.13;;;2.10;;
10904;SDS011;5505;51.450;9.254;2023-06-14T03:09:10;1.97;;;1.83;;
10904;SDS011;5505;51.450;9.254;2023-06-14T03:11:58;3.23;;;2.03;;
10904;SDS011;5505;51.450;9.254;2023-06-14T03:14:45;2.13;;;1.93;;
10904;SDS011;5505;51.450;9.254;2023-06-14T03:17:33;2.70;;;2.00;;
10904;SDS011;5505;51.450;9.254;2023-06-14T03:20:22;4.37;;;2.20;;
10904;SDS011;5505;51.450;9.254;2023-06-14T03:23:09;3.70;;;2.03;;
10904;SDS011;5505;51.450;9.254;2023-06-14T03:25:57;4.70;;;2.23;;
10904;SDS011;5505;51.450;9.254;2023-06-14T03:28:44;2.10;;;1.90;;
10904;SDS011;5505;51.450;9.254;2023-06-14T03:31:31;3.67;;;2.60;;
10904;SDS011;5505;51.450;9.254;2023-06-14T03:34:19;4.90;;;1.80;;
10904;SDS011;5505;51.450;9.254;2023-06-14T03:37:07;3.60;;;1.90;;
10904;SDS011;5505;51.450;9.254;2023-06-14T03:39:54;2.83;;;2.00;;
10904;SDS011;5505;51.450;9.254;2023-06-14T03:42:42;2.30;;;2.10;;
10904;SDS011;5505;51.450;9.254;2023-06-14T03:45:29;3.27;;;2.33;;
10904;SDS011;5505;51.450;9.254;2023-06-14T03:48:16;2.30;;;2.10;;
10904;SDS011;5505;51.450;9.254;2023-06-14T03:51:03;5.83;;;2.00;;
10904;SDS011;5505;51.450;9.254;2023-06-14T03:53:51;3.50;;;1.90;;
10904;SDS011;5505;51.450;9.254;2023-06-14T03:56:39;2.97;;;2.17;;
10904;SDS011;5505;51.450;9.254;2023-06-14T03:59:26;2.53;;;1.87;;
10904;SDS011;5505;51.450;9.254;2023-06-14T04:02:13;2.30;;;2.10;;
10904;SDS011;5505;51.450;9.254;2023-06-14T04:05:01;3.20;;;2.30;;
10904;SDS011;5505;51.450;9.254;2023-06-14T04:07:48;2.40;;;2.20;;
10904;SDS011;5505;51.450;9.254;2023-06-14T04:10:37;4.53;;;2.03;;
10904;SDS011;5505;51.450;9.254;2023-06-14T04:13:24;3.77;;;2.47;;
10904;SDS011;5505;51.450;9.254;2023-06-14T04:16:11;4.77;;;2.10;;
10904;SDS011;5505;51.450;9.254;2023-06-14T04:18:58;3.13;;;2.03;;
10904;SDS011;5505;51.450;9.254;2023-06-14T04:21:45;4.67;;;2.00;;
10904;SDS011;5505;51.450;9.254;2023-06-14T04:24:32;3.13;;;2.23;;
10904;SDS011;5505;51.450;9.254;2023-06-14T04:27:21;8.73;;;2.20;;
10904;SDS011;5505;51.450;9.254;2023-06-14T04:30:10;3.03;;;1.97;;
10904;SDS011;5505;51.450;9.254;2023-06-14T04:32:58;2.80;;;2.00;;
10904;SDS011;5505;51.450;9.254;2023-06-14T04:35:45;2.60;;;1.97;;
10904;SDS011;5505;51.450;9.254;2023-06-14T04:38:34;1.90;;;1.80;;
10904;SDS011;5505;51.450;9.254;2023-06-14T04:41:21;5.00;;;2.20;;
10904;SDS011;5505;51.450;9.254;2023-06-14T04:44:17;2.17;;;1.97;;
10904;SDS011;5505;51.450;9.254;2023-06-14T04:47:05;4.40;;;2.00;;
10904;SDS011;5505;51.450;9.254;2023-06-14T04:49:52;6.27;;;2.10;;
10904;SDS011;5505;51.450;9.254;2023-06-14T04:52:39;2.13;;;2.00;;
10904;SDS011;5505;51.450;9.254;2023-06-14T04:55:27;3.73;;;2.10;;
10904;SDS011;5505;51.450;9.254;2023-06-14T04:58:14;2.60;;;2.13;;
10904;SDS011;5505;51.450;9.254;2023-06-14T05:01:02;2.13;;;1.90;;
10904;SDS011;5505;51.450;9.254;2023-06-14T05:03:50;3.93;;;2.20;;
10904;SDS011;5505;51.450;9.254;2023-06-14T05:06:37;3.00;;;2.27;;
10904;SDS011;5505;51.450;9.254;2023-06-14T05:09:24;2.53;;;1.83;;
10904;SDS011;5505;51.450;9.254;2023-06-14T05:12:12;2.63;;;2.30;;
10904;SDS011;5505;51.450;9.254;2023-06-14T05:14:59;2.43;;;2.07;;
10904;SDS011;5505;51.450;9.254;2023-06-14T05:17:47;2.00;;;1.80;;
10904;SDS011;5505;51.450;9.254;2023-06-14T05:20:40;3.83;;;1.90;;
10904;SDS011;5505;51.450;9.254;2023-06-14T05:23:27;2.27;;;1.77;;
10904;SDS011;5505;51.450;9.254;2023-06-14T05:26:15;2.57;;;2.03;;
10904;SDS011;5505;51.450;9.254;2023-06-14T05:29:02;2.50;;;1.83;;
10904;SDS011;5505;51.450;9.254;2023-06-14T05:31:49;2.67;;;1.60;;
10904;SDS011;5505;51.450;9.254;2023-06-14T05:34:37;2.00;;;1.80;;
10904;SDS011;5505;51.450;9.254;2023-06-14T05:37:25;3.20;;;1.87;;
10904;SDS011;5505;51.450;9.254;2023-06-14T05:40:12;5.43;;;1.70;;
10904;SDS011;5505;51.450;9.254;2023-06-14T05:42:59;3.83;;;1.77;;
10904;SDS011;5505;51.450;9.254;2023-06-14T05:45:47;2.57;;;2.00;;
10904;SDS011;5505;51.450;9.254;2023-06-14T05:48:34;2.77;;;2.00;;
10904;SDS011;5505;51.450;9.254;2023-06-14T05:51:22;3.07;;;1.80;;
10904;SDS011;5505;51.450;9.254;2023-06-14T05:54:10;3.83;;;1.80;;
10904;SDS011;5505;51.450;9.254;2023-06-14T05:56:57;1.90;;;1.43;;
10904;SDS011;5505;51.450;9.254;2023-06-14T05:59:46;3.20;;;1.43;;
10904;SDS011;5505;51.450;9.254;2023-06-14T06:02:33;3.23;;;1.50;;
10904;SDS011;5505;51.450;9.254;2023-06-14T06:05:20;1.70;;;1.60;;
10904;SDS011;5505;51.450;9.254;2023-06-14T06:08:09;1.67;;;1.53;;
10904;SDS011;5505;51.450;9.254;2023-06-14T06:10:56;1.50;;;1.40;;
10904;SDS011;5505;51.450;9.254;2023-06-14T06:13:43;5.27;;;1.57;;
10904;SDS011;5505;51.450;9.254;2023-06-14T06:16:30;1.70;;;1.50;;
10904;SDS011;5505;51.450;9.254;2023-06-14T06:19:17;3.60;;;1.80;;
10904;SDS011;5505;51.450;9.254;2023-06-14T06:22:04;2.07;;;1.73;;
10904;SDS011;5505;51.450;9.254;2023-06-14T06:24:54;3.37;;;2.00;;
10904;SDS011;5505;51.450;9.254;2023-06-14T06:27:41;1.90;;;1.77;;
10904;SDS011;5505;51.450;9.254;2023-06-14T06:30:28;2.60;;;1.87;;
10904;SDS011;5505;51.450;9.254;2023-06-14T06:33:16;2.20;;;1.60;;
10904;SDS011;5505;51.450;9.254;2023-06-14T06:36:03;2.53;;;1.80;;
10904;SDS011;5505;51.450;9.254;2023-06-14T06:38:50;2.70;;;2.07;;
10904;SDS011;5505;51.450;9.254;2023-06-14T06:41:38;2.43;;;2.20;;
10904;SDS011;5505;51.450;9.254;2023-06-14T06:44:26;3.83;;;1.90;;
10904;SDS011;5505;51.450;9.254;2023-06-14T06:47:13;1.83;;;1.73;;
10904;SDS011;5505;51.450;9.254;2023-06-14T06:50:00;2.27;;;2.00;;
10904;SDS011;5505;51.450;9.254;2023-06-14T06:52:47;1.80;;;1.70;;
10904;SDS011;5505;51.450;9.254;2023-06-14T06:55:34;2.07;;;1.80;;
10904;SDS011;5505;51.450;9.254;2023-06-14T06:58:23;4.27;;;1.90;;
10904;SDS011;5505;51.450;9.254;2023-06-14T07:01:11;4.10;;;1.80;;
10904;SDS011;5505;51.450;9.254;2023-06-14T07:03:58;3.37;;;1.80;;
10904;SDS011;5505;51.450;9.254;2023-06-14T07:06:45;1.97;;;1.77;;
10904;SDS011;5505;51.450;9.254;2023-06-14T07:09:33;2.80;;;1.80;;
10904;SDS011;5505;51.450;9.254;2023-06-14T07:12:21;2.40;;;1.83;;
10904;SDS011;5505;51.450;9.254;2023-06-14T07:15:10;3.87;;;2.17;;
10904;SDS011;5505;51.450;9.254;2023-06-14T07:17:58;1.77;;;1.63;;
10904;SDS011;5505;51.450;9.254;2023-06-14T07:20:45;4.93;;;2.10;;
10904;SDS011;5505;51.450;9.254;2023-06-14T07:23:33;2.50;;;1.93;;
10904;SDS011;5505;51.450;9.254;2023-06-14T07:26:20;4.13;;;1.90;;
10904;SDS011;5505;51.450;9.254;2023-06-14T07:29:07;3.20;;;2.00;;
10904;SDS011;5505;51.450;9.254;2023-06-14T07:31:56;4.70;;;2.20;;
10904;SDS011;5505;51.450;9.254;2023-06-14T07:34:43;3.23;;;1.97;;
10904;SDS011;5505;51.450;9.254;2023-06-14T07:37:30;2.73;;;2.10;;
10904;SDS011;5505;51.450;9.254;2023-06-14T07:40:17;4.53;;;1.80;;
10904;SDS011;5505;51.450;9.254;2023-06-14T07:43:05;2.70;;;2.10;;
10904;SDS011;5505;51.450;9.254;2023-06-14T07:45:52;2.20;;;2.00;;
10904;SDS011;5505;51.450;9.254;2023-06-14T07:48:40;2.83;;;2.10;;
10904;SDS011;5505;51.450;9.254;2023-06-14T07:51:27;1.80;;;1.70;;
10904;SDS011;5505;51.450;9.254;2023-06-14T07:54:15;21.63;;;2.40;;
10904;SDS011;5505;51.450;9.254;2023-06-14T07:57:02;5.57;;;1.90;;
10904;SDS011;5505;51.450;9.254;2023-06-14T07:59:50;5.03;;;2.00;;
10904;SDS011;5505;51.450;9.254;2023-06-14T08:02:37;4.50;;;2.00;;
10904;SDS011;5505;51.450;9.254;2023-06-14T08:05:25;4.57;;;2.27;;
10904;SDS011;5505;51.450;9.254;2023-06-14T08:08:13;4.00;;;2.10;;
10904;SDS011;5505;51.450;9.254;2023-06-14T08:11:01;3.20;;;2.37;;
10904;SDS011;5505;51.450;9.254;2023-06-14T08:13:48;2.20;;;2.00;;
10904;SDS011;5505;51.450;9.254;2023-06-14T08:16:35;4.50;;;2.23;;
10904;SDS011;5505;51.450;9.254;2023-06-14T08:19:22;5.90;;;2.37;;
10904;SDS011;5505;51.450;9.254;2023-06-14T08:22:11;5.10;;;2.60;;
10904;SDS011;5505;51.450;9.254;2023-06-14T08:24:58;2.87;;;2.13;;
10904;SDS011;5505;51.450;9.254;2023-06-14T08:27:46;4.20;;;2.10;;
10904;SDS011;5505;51.450;9.254;2023-06-14T08:30:33;2.97;;;2.20;;
10904;SDS011;5505;51.450;9.254;2023-06-14T08:33:20;3.60;;;1.80;;
10904;SDS011;5505;51.450;9.254;2023-06-14T08:36:07;2.83;;;2.20;;
10904;SDS011;5505;51.450;9.254;2023-06-14T08:38:57;3.03;;;1.90;;
10904;SDS011;5505;51.450;9.254;2023-06-14T08:41:45;3.73;;;1.87;;
10904;SDS011;5505;51.450;9.254;2023-06-14T08:44:33;4.73;;;2.27;;
10904;SDS011;5505;51.450;9.254;2023-06-14T08:47:21;4.80;;;2.30;;
10904;SDS011;5505;51.450;9.254;2023-06-14T08:50:10;2.50;;;1.83;;
10904;SDS011;5505;51.450;9.254;2023-06-14T08:53:00;2.80;;;2.23;;
10904;SDS011;5505;51.450;9.254;2023-06-14T08:55:49;3.90;;;2.30;;
10904;SDS011;5505;51.450;9.254;2023-06-14T08:58:38;5.27;;;2.63;;
10904;SDS011;5505;51.450;9.254;2023-06-14T09:01:30;5.00;;;1.80;;
10904;SDS011;5505;51.450;9.254;2023-06-14T09:04:19;4.93;;;2.10;;
10904;SDS011;5505;51.450;9.254;2023-06-14T09:07:07;2.00;;;1.90;;
10904;SDS011;5505;51.450;9.254;2023-06-14T09:10:04;5.77;;;1.97;;
10904;SDS011;5505;51.450;9.254;2023-06-14T09:12:55;6.43;;;2.20;;
10904;SDS011;5505;51.450;9.254;2023-06-14T09:15:42;3.23;;;2.10;;
10904;SDS011;5505;51.450;9.254;2023-06-14T09:18:35;2.63;;;2.10;;
10904;SDS011;5505;51.450;9.254;2023-06-14T09:21:23;2.10;;;1.77;;
10904;SDS011;5505;51.450;9.254;2023-06-14T09:24:13;3.30;;;2.10;;
10904;SDS011;5505;51.450;9.254;2023-06-14T09:27:00;2.20;;;2.00;;
10904;SDS011;5505;51.450;9.254;2023-06-14T09:29:49;2.83;;;1.97;;
10904;SDS011;5505;51.450;9.254;2023-06-14T09:32:37;4.40;;;2.13;;
10904;SDS011;5505;51.450;9.254;2023-06-14T09:35:25;4.07;;;1.80;;
10904;SDS011;5505;51.450;9.254;2023-06-14T09:38:15;3.23;;;2.03;;
10904;SDS011;5505;51.450;9.254;2023-06-14T09:41:02;4.40;;;2.07;;
10904;SDS011;5505;51.450;9.254;2023-06-14T09:43:50;5.93;;;2.37;;
10904;SDS011;5505;51.450;9.254;2023-06-14T09:46:39;3.13;;;1.80;;
10904;SDS011;5505;51.450;9.254;2023-06-14T09:49:26;1.70;;;1.60;;
10904;SDS011;5505;51.450;9.254;2023-06-14T09:52:14;4.53;;;1.90;;
10904;SDS011;5505;51.450;9.254;2023-06-14T09:55:03;2.80;;;1.87;;
10904;SDS011;5505;51.450;9.254;2023-06-14T09:57:58;2.70;;;2.00;;
10904;SDS011;5505;51.450;9.254;2023-06-14T10:00:51;2.30;;;2.00;;
10904;SDS011;5505;51.450;9.254;2023-06-14T10:03:39;4.43;;;1.83;;
10904;SDS011;5505;51.450;9.254;2023-06-14T10:06:29;2.40;;;2.10;;
10904;SDS011;5505;51.450;9.254;2023-06-14T10:09:17;2.50;;;1.80;;
10904;SDS011;5505;51.450;9.254;2023-06-14T10:12:04;1.80;;;1.70;;
10904;SDS011;5505;51.450;9.254;2023-06-14T10:14:52;2.60;;;1.70;;
10904;SDS011;5505;51.450;9.254;2023-06-14T10:17:42;4.97;;;1.93;;
10904;SDS011;5505;51.450;9.254;2023-06-14T10:20:37;2.10;;;1.77;;
10904;SDS011;5505;51.450;9.254;2023-06-14T10:23:31;1.77;;;1.67;;
10904;SDS011;5505;51.450;9.254;2023-06-14T10:26:22;2.97;;;1.87;;
10904;SDS011;5505;51.450;9.254;2023-06-14T10:29:10;1.83;;;1.70;;
10904;SDS011;5505;51.450;9.254;2023-06-14T10:31:57;3.73;;;1.83;;
10904;SDS011;5505;51.450;9.254;2023-06-14T10:34:45;3.50;;;1.73;;
10904;SDS011;5505;51.450;9.254;2023-06-14T10:37:42;2.33;;;1.67;;
10904;SDS011;5505;51.450;9.254;2023-06-14T10:40:33;1.90;;;1.80;;
10904;SDS011;5505;51.450;9.254;2023-06-14T10:43:21;1.80;;;1.70;;
10904;SDS011;5505;51.450;9.254;2023-06-14T10:46:15;6.23;;;1.90;;
10904;SDS011;5505;51.450;9.254;2023-06-14T10:49:03;1.70;;;1.60;;
10904;SDS011;5505;51.450;9.254;2023-06-14T10:51:52;4.27;;;2.00;;
10904;SDS011;5505;51.450;9.254;2023-06-14T10:54:40;2.97;;;1.60;;
10904;SDS011;5505;51.450;9.254;2023-06-14T10:57:42;2.57;;;1.80;;
10904;SDS011;5505;51.450;9.254;2023-06-14T11:00:32;4.50;;;1.70;;
10904;SDS011;5505;51.450;9.254;2023-06-14T11:06:45;2.10;;;1.90;;
10904;SDS011;5505;51.450;9.254;2023-06-14T11:09:42;2.27;;;1.70;;
10904;SDS011;5505;51.450;9.254;2023-06-14T11:12:42;3.13;;;1.90;;
10904;SDS011;5505;51.450;9.254;2023-06-14T11:15:34;4.00;;;1.97;;
10904;SDS011;5505;51.450;9.254;2023-06-14T11:18:22;1.80;;;1.53;;
10904;SDS011;5505;51.450;9.254;2023-06-14T11:21:10;1.73;;;1.47;;
10904;SDS011;5505;51.450;9.254;2023-06-14T11:23:57;4.77;;;1.53;;
10904;SDS011;5505;51.450;9.254;2023-06-14T11:26:46;6.70;;;1.77;;
10904;SDS011;5505;51.450;9.254;2023-06-14T11:29:34;3.00;;;1.30;;
10904;SDS011;5505;51.450;9.254;2023-06-14T11:32:21;1.60;;;1.50;;
10904;SDS011;5505;51.450;9.254;2023-06-14T11:35:08;2.50;;;1.37;;
10904;SDS011;5505;51.450;9.254;2023-06-14T11:37:56;2.00;;;1.70;;
10904;SDS011;5505;51.450;9.254;2023-06-14T11:40:43;1.60;;;1.50;;
10904;SDS011;5505;51.450;9.254;2023-06-14T11:43:32;1.77;;;1.60;;
10904;SDS011;5505;51.450;9.254;2023-06-14T11:46:20;20.03;;;1.80;;
10904;SDS011;5505;51.450;9.254;2023-06-14T11:49:10;1.43;;;1.33;;
10904;SDS011;5505;51.450;9.254;2023-06-14T11:51:57;2.07;;;1.53;;
10904;SDS011;5505;51.450;9.254;2023-06-14T11:54:44;2.00;;;1.60;;
10904;SDS011;5505;51.450;9.254;2023-06-14T11:57:34;1.83;;;1.43;;
10904;SDS011;5505;51.450;9.254;2023-06-14T12:00:25;3.13;;;1.60;;
10904;SDS011;5505;51.450;9.254;2023-06-14T12:03:13;1.53;;;1.40;;
10904;SDS011;5505;51.450;9.254;2023-06-14T12:06:04;1.83;;;1.20;;
10904;SDS011;5505;51.450;9.254;2023-06-14T12:08:55;3.03;;;1.50;;
10904;SDS011;5505;51.450;9.254;2023-06-14T12:11:42;1.97;;;1.50;;
10904;SDS011;5505;51.450;9.254;2023-06-14T12:14:29;3.37;;;1.40;;
10904;SDS011;5505;51.450;9.254;2023-06-14T12:17:18;2.80;;;1.50;;
10904;SDS011;5505;51.450;9.254;2023-06-14T12:20:06;1.97;;;1.43;;
10904;SDS011;5505;51.450;9.254;2023-06-14T12:22:57;2.20;;;1.37;;
10904;SDS011;5505;51.450;9.254;2023-06-14T12:25:46;1.63;;;1.37;;
10904;SDS011;5505;51.450;9.254;2023-06-14T12:28:35;3.23;;;1.60;;
10904;SDS011;5505;51.450;9.254;2023-06-14T12:31:22;1.40;;;1.30;;
10904;SDS011;5505;51.450;9.254;2023-06-14T12:34:11;1.57;;;1.47;;
10904;SDS011;5505;51.450;9.254;2023-06-14T12:36:58;1.50;;;1.40;;
10904;SDS011;5505;51.450;9.254;2023-06-14T12:39:45;5.13;;;1.40;;
10904;SDS011;5505;51.450;9.254;2023-06-14T12:42:32;1.93;;;1.40;;
10904;SDS011;5505;51.450;9.254;2023-06-14T12:45:20;4.00;;;1.30;;
10904;SDS011;5505;51.450;9.254;2023-06-14T12:48:08;2.57;;;1.63;;
10904;SDS011;5505;51.450;9.254;2023-06-14T12:50:57;4.97;;;1.43;;
10904;SDS011;5505;51.450;9.254;2023-06-14T12:53:44;3.00;;;1.87;;
10904;SDS011;5505;51.450;9.254;2023-06-14T12:56:31;2.93;;;1.53;;
10904;SDS011;5505;51.450;9.254;2023-06-14T12:59:18;3.47;;;1.40;;
10904;SDS011;5505;51.450;9.254;2023-06-14T13:02:12;3.93;;;1.57;;
10904;SDS011;5505;51.450;9.254;2023-06-14T13:04:59;2.33;;;1.50;;
10904;SDS011;5505;51.450;9.254;2023-06-14T13:07:50;2.23;;;1.23;;
10904;SDS011;5505;51.450;9.254;2023-06-14T13:10:37;1.60;;;1.50;;
10904;SDS011;5505;51.450;9.254;2023-06-14T13:13:24;1.93;;;1.30;;
10904;SDS011;5505;51.450;9.254;2023-06-14T13:16:11;4.57;;;1.33;;
10904;SDS011;5505;51.450;9.254;2023-06-14T13:18:59;2.37;;;1.30;;
10904;SDS011;5505;51.450;9.254;2023-06-14T13:21:47;1.50;;;1.13;;
10904;SDS011;5505;51.450;9.254;2023-06-14T13:24:36;5.97;;;1.30;;
10904;SDS011;5505;51.450;9.254;2023-06-14T13:27:23;2.13;;;1.30;;
10904;SDS011;5505;51.450;9.254;2023-06-14T13:30:11;2.77;;;1.17;;
10904;SDS011;5505;51.450;9.254;2023-06-14T13:32:59;0.90;;;0.90;;
10904;SDS011;5505;51.450;9.254;2023-06-14T13:35:46;0.97;;;0.97;;
10904;SDS011;5505;51.450;9.254;2023-06-14T13:38:34;3.13;;;1.10;;
10904;SDS011;5505;51.450;9.254;2023-06-14T13:41:22;1.60;;;0.87;;
10904;SDS011;5505;51.450;9.254;2023-06-14T13:44:09;1.80;;;1.00;;
10904;SDS011;5505;51.450;9.254;2023-06-14T13:46:59;1.67;;;1.13;;
10904;SDS011;5505;51.450;9.254;2023-06-14T13:49:47;5.50;;;1.20;;
10904;SDS011;5505;51.450;9.254;2023-06-14T13:52:34;1.63;;;0.80;;
10904;SDS011;5505;51.450;9.254;2023-06-14T13:55:21;0.87;;;0.80;;
10904;SDS011;5505;51.450;9.254;2023-06-14T13:58:09;1.77;;;1.17;;
10904;SDS011;5505;51.450;9.254;2023-06-14T14:00:56;1.33;;;1.00;;
10904;SDS011;5505;51.450;9.254;2023-06-14T14:03:45;1.70;;;0.97;;
10904;SDS011;5505;51.450;9.254;2023-06-14T14:06:32;1.70;;;0.90;;
10904;SDS011;5505;51.450;9.254;2023-06-14T14:09:20;1.87;;;1.10;;
10904;SDS011;5505;51.450;9.254;2023-06-14T14:12:07;3.03;;;0.97;;
10904;SDS011;5505;51.450;9.254;2023-06-14T14:14:57;1.27;;;1.17;;
10904;SDS011;5505;51.450;9.254;2023-06-14T14:17:44;1.87;;;1.20;;
10904;SDS011;5505;51.450;9.254;2023-06-14T14:20:31;2.10;;;0.90;;
10904;SDS011;5505;51.450;9.254;2023-06-14T14:23:19;1.50;;;1.00;;
10904;SDS011;5505;51.450;9.254;2023-06-14T14:26:06;1.20;;;1.10;;
10904;SDS011;5505;51.450;9.254;2023-06-14T14:28:53;0.90;;;0.90;;
10904;SDS011;5505;51.450;9.254;2023-06-14T14:31:42;1.20;;;1.10;;
10904;SDS011;5505;51.450;9.254;2023-06-14T14:34:29;2.10;;;1.23;;
10904;SDS011;5505;51.450;9.254;2023-06-14T14:37:16;4.40;;;1.00;;
10904;SDS011;5505;51.450;9.254;2023-06-14T14:40:06;1.97;;;1.00;;
10904;SDS011;5505;51.450;9.254;2023-06-14T14:42:55;2.33;;;1.10;;
10904;SDS011;5505;51.450;9.254;2023-06-14T14:45:42;1.20;;;0.90;;
10904;SDS011;5505;51.450;9.254;2023-06-14T14:48:30;1.73;;;1.03;;
10904;SDS011;5505;51.450;9.254;2023-06-14T14:51:17;1.10;;;1.10;;
10904;SDS011;5505;51.450;9.254;2023-06-14T14:54:04;0.90;;;0.90;;
10904;SDS011;5505;51.450;9.254;2023-06-14T14:56:53;1.03;;;1.03;;
10904;SDS011;5505;51.450;9.254;2023-06-14T14:59:40;1.30;;;1.00;;
10904;SDS011;5505;51.450;9.254;2023-06-14T15:02:27;1.13;;;1.10;;
10904;SDS011;5505;51.450;9.254;2023-06-14T15:05:15;1.00;;;1.00;;
10904;SDS011;5505;51.450;9.254;2023-06-14T15:08:02;1.87;;;1.20;;
10904;SDS011;5505;51.450;9.254;2023-06-14T15:10:50;1.37;;;0.90;;
10904;SDS011;5505;51.450;9.254;2023-06-14T15:13:37;1.60;;;1.13;;
10904;SDS011;5505;51.450;9.254;2023-06-14T15:16:24;2.67;;;1.00;;
10904;SDS011;5505;51.450;9.254;2023-06-14T15:19:11;1.60;;;1.03;;
10904;SDS011;5505;51.450;9.254;2023-06-14T15:22:00;1.00;;;0.90;;
10904;SDS011;5505;51.450;9.254;2023-06-14T15:24:47;1.73;;;1.10;;
10904;SDS011;5505;51.450;9.254;2023-06-14T15:27:34;1.07;;;0.90;;
10904;SDS011;5505;51.450;9.254;2023-06-14T15:30:21;2.27;;;1.10;;
10904;SDS011;5505;51.450;9.254;2023-06-14T15:33:08;1.10;;;0.97;;
10904;SDS011;5505;51.450;9.254;2023-06-14T15:35:56;1.13;;;0.93;;
10904;SDS011;5505;51.450;9.254;2023-06-14T15:38:44;1.20;;;1.10;;
10904;SDS011;5505;51.450;9.254;2023-06-14T15:41:32;4.17;;;1.23;;
10904;SDS011;5505;51.450;9.254;2023-06-14T15:44:19;2.50;;;1.17;;
10904;SDS011;5505;51.450;9.254;2023-06-14T15:47:06;1.60;;;1.30;;
10904;SDS011;5505;51.450;9.254;2023-06-14T15:49:53;2.20;;;1.00;;
10904;SDS011;5505;51.450;9.254;2023-06-14T15:52:40;4.00;;;1.23;;
10904;SDS011;5505;51.450;9.254;2023-06-14T15:55:29;2.47;;;1.20;;
10904;SDS011;5505;51.450;9.254;2023-06-14T15:58:16;1.60;;;1.20;;
10904;SDS011;5505;51.450;9.254;2023-06-14T16:01:03;2.20;;;1.20;;
10904;SDS011;5505;51.450;9.254;2023-06-14T16:03:50;8.57;;;1.37;;
10904;SDS011;5505;51.450;9.254;2023-06-14T16:06:37;4.30;;;1.30;;
10904;SDS011;5505;51.450;9.254;2023-06-14T16:09:24;2.97;;;1.37;;
10904;SDS011;5505;51.450;9.254;2023-06-14T16:12:13;1.57;;;1.40;;
10904;SDS011;5505;51.450;9.254;2023-06-14T16:15:00;2.47;;;1.20;;
10904;SDS011;5505;51.450;9.254;2023-06-14T16:17:47;2.10;;;1.27;;
10904;SDS011;5505;51.450;9.254;2023-06-14T16:20:34;1.43;;;1.17;;
10904;SDS011;5505;51.450;9.254;2023-06-14T16:23:21;1.33;;;1.20;;
10904;SDS011;5505;51.450;9.254;2023-06-14T16:26:09;2.97;;;1.20;;
10904;SDS011;5505;51.450;9.254;2023-06-14T16:28:58;1.67;;;1.10;;
10904;SDS011;5505;51.450;9.254;2023-06-14T16:31:45;2.07;;;1.30;;
10904;SDS011;5505;51.450;9.254;2023-06-14T16:34:32;2.13;;;1.10;;
10904;SDS011;5505;51.450;9.254;2023-06-14T16:37:20;2.70;;;1.20;;
10904;SDS011;5505;51.450;9.254;2023-06-14T16:40:08;2.40;;;1.30;;
10904;SDS011;5505;51.450;9.254;2023-06-14T16:42:55;4.13;;;0.97;;
10904;SDS011;5505;51.450;9.254;2023-06-14T16:45:44;1.57;;;1.47;;
10904;SDS011;5505;51.450;9.254;2023-06-14T16:48:31;1.80;;;1.40;;
10904;SDS011;5505;51.450;9.254;2023-06-14T16:51:18;3.10;;;1.30;;
10904;SDS011;5505;51.450;9.254;2023-06-14T16:54:05;4.97;;;1.40;;
10904;SDS011;5505;51.450;9.254;2023-06-14T16:56:52;3.07;;;1.30;;
10904;SDS011;5505;51.450;9.254;2023-06-14T16:59:39;3.10;;;1.33;;
10904;SDS011;5505;51.450;9.254;2023-06-14T17:02:28;2.67;;;1.23;;
10904;SDS011;5505;51.450;9.254;2023-06-14T17:05:15;2.00;;;1.30;;
10904;SDS011;5505;51.450;9.254;2023-06-14T17:08:02;4.63;;;1.30;;
10904;SDS011;5505;51.450;9.254;2023-06-14T17:10:50;2.83;;;1.50;;